sensor_id;sensor_type;location;lat;lon;timestamp;P1;P2;P0
33948;PMS7003;20229;49.856;19.030;2024-01-07T00:00:52;8;7;4
33948;PMS7003;20229;49.856;19.030;2024-01-07T00:06:11;7;6;4
33948;PMS7003;20229;49.856;19.030;2024-01-07T00:11:25;8;8;4
33948;PMS7003;20229;49.856;19.030;2024-01-07T00:16:40;7;7;4
33948;PMS7003;20229;49.856;19.030;2024-01-07T00:21:55;7;6;3
33948;PMS7003;20229;49.856;19.030;2024-01-07T00:27:10;6;6;3
33948;PMS7003;20229;49.856;19.030;2024-01-07T00:32:25;10;6;4
33948;PMS7003;20229;49.856;19.030;2024-01-07T00:37:40;7;6;4
33948;PMS7003;20229;49.856;19.030;2024-01-07T00:42:54;10;9;4
33948;PMS7003;20229;49.856;19.030;2024-01-07T00:48:08;6;6;4
33948;PMS7003;20229;49.856;19.030;2024-01-07T00:53:22;7;7;5
33948;PMS7003;20229;49.856;19.030;2024-01-07T00:58:36;4;3;1
33948;PMS7003;20229;49.856;19.030;2024-01-07T01:03:51;7;6;3
33948;PMS7003;20229;49.856;19.030;2024-01-07T01:09:05;6;6;4
33948;PMS7003;20229;49.856;19.030;2024-01-07T01:14:19;8;7;4
33948;PMS7003;20229;49.856;19.030;2024-01-07T01:19:34;8;6;5
33948;PMS7003;20229;49.856;19.030;2024-01-07T01:24:49;7;6;5
33948;PMS7003;20229;49.856;19.030;2024-01-07T01:30:06;4;4;1
33948;PMS7003;20229;49.856;19.030;2024-01-07T01:35:23;8;8;5
33948;PMS7003;20229;49.856;19.030;2024-01-07T01:40:37;5;4;2
33948;PMS7003;20229;49.856;19.030;2024-01-07T01:45:51;7;7;5
33948;PMS7003;20229;49.856;19.030;2024-01-07T01:51:06;8;5;3
33948;PMS7003;20229;49.856;19.030;2024-01-07T01:56:21;7;6;4
33948;PMS7003;20229;49.856;19.030;2024-01-07T02:01:36;8;8;6
33948;PMS7003;20229;49.856;19.030;2024-01-07T02:06:51;8;6;4
33948;PMS7003;20229;49.856;19.030;2024-01-07T02:12:06;5;5;3
33948;PMS7003;20229;49.856;19.030;2024-01-07T02:17:24;9;7;4
33948;PMS7003;20229;49.856;19.030;2024-01-07T02:22:39;6;6;4
33948;PMS7003;20229;49.856;19.030;2024-01-07T02:27:54;9;7;4
33948;PMS7003;20229;49.856;19.030;2024-01-07T02:33:08;8;7;4
33948;PMS7003;20229;49.856;19.030;2024-01-07T02:38:24;3;3;2
33948;PMS7003;20229;49.856;19.030;2024-01-07T02:43:38;7;7;4
33948;PMS7003;20229;49.856;19.030;2024-01-07T02:48:52;8;7;4
33948;PMS7003;20229;49.856;19.030;2024-01-07T02:54:06;7;7;3
33948;PMS7003;20229;49.856;19.030;2024-01-07T02:59:20;7;6;4
33948;PMS7003;20229;49.856;19.030;2024-01-07T03:04:34;7;6;3
33948;PMS7003;20229;49.856;19.030;2024-01-07T03:09:48;7;6;4
33948;PMS7003;20229;49.856;19.030;2024-01-07T03:15:03;10;8;5
33948;PMS7003;20229;49.856;19.030;2024-01-07T03:20:21;11;10;6
33948;PMS7003;20229;49.856;19.030;2024-01-07T03:25:35;10;8;5
33948;PMS7003;20229;49.856;19.030;2024-01-07T03:30:49;10;9;5
33948;PMS7003;20229;49.856;19.030;2024-01-07T03:41:26;12;8;6
33948;PMS7003;20229;49.856;19.030;2024-01-07T03:46:40;8;7;4
33948;PMS7003;20229;49.856;19.030;2024-01-07T03:51:54;5;5;3
33948;PMS7003;20229;49.856;19.030;2024-01-07T03:57:08;8;8;5
33948;PMS7003;20229;49.856;19.030;2024-01-07T04:02:21;10;7;3
33948;PMS7003;20229;49.856;19.030;2024-01-07T04:07:38;11;9;5
33948;PMS7003;20229;49.856;19.030;2024-01-07T04:12:52;8;8;6
33948;PMS7003;20229;49.856;19.030;2024-01-07T04:18:06;10;8;4
33948;PMS7003;20229;49.856;19.030;2024-01-07T04:23:20;10;9;6
33948;PMS7003;20229;49.856;19.030;2024-01-07T04:28:34;10;8;5
33948;PMS7003;20229;49.856;19.030;2024-01-07T04:33:49;7;7;4
33948;PMS7003;20229;49.856;19.030;2024-01-07T04:39:10;6;6;4
33948;PMS7003;20229;49.856;19.030;2024-01-07T04:44:25;7;6;4
33948;PMS7003;20229;49.856;19.030;2024-01-07T04:49:38;9;8;5
33948;PMS7003;20229;49.856;19.030;2024-01-07T04:54:53;9;7;4
33948;PMS7003;20229;49.856;19.030;2024-01-07T05:00:08;9;9;5
33948;PMS7003;20229;49.856;19.030;2024-01-07T05:05:23;8;7;4
33948;PMS7003;20229;49.856;19.030;2024-01-07T05:10:39;8;8;5
33948;PMS7003;20229;49.856;19.030;2024-01-07T05:15:53;8;6;4
33948;PMS7003;20229;49.856;19.030;2024-01-07T05:21:07;7;6;4
33948;PMS7003;20229;49.856;19.030;2024-01-07T05:26:21;6;4;3
33948;PMS7003;20229;49.856;19.030;2024-01-07T05:31:36;5;4;3
33948;PMS7003;20229;49.856;19.030;2024-01-07T05:36:51;7;6;3
33948;PMS7003;20229;49.856;19.030;2024-01-07T05:42:05;5;5;4
33948;PMS7003;20229;49.856;19.030;2024-01-07T05:47:19;4;4;3
33948;PMS7003;20229;49.856;19.030;2024-01-07T05:52:34;8;5;3
33948;PMS7003;20229;49.856;19.030;2024-01-07T05:57:48;11;6;4
33948;PMS7003;20229;49.856;19.030;2024-01-07T06:03:02;8;7;4
33948;PMS7003;20229;49.856;19.030;2024-01-07T06:08:16;8;6;3
33948;PMS7003;20229;49.856;19.030;2024-01-07T06:13:30;7;6;4
33948;PMS7003;20229;49.856;19.030;2024-01-07T06:18:46;6;6;2
33948;PMS7003;20229;49.856;19.030;2024-01-07T06:24:00;6;5;4
33948;PMS7003;20229;49.856;19.030;2024-01-07T06:29:17;5;5;3
33948;PMS7003;20229;49.856;19.030;2024-01-07T06:34:32;5;5;3
33948;PMS7003;20229;49.856;19.030;2024-01-07T06:39:47;8;6;4
33948;PMS7003;20229;49.856;19.030;2024-01-07T06:45:01;7;6;3
33948;PMS7003;20229;49.856;19.030;2024-01-07T06:50:16;7;6;3
33948;PMS7003;20229;49.856;19.030;2024-01-07T06:55:33;8;7;4
33948;PMS7003;20229;49.856;19.030;2024-01-07T07:00:47;4;4;2
33948;PMS7003;20229;49.856;19.030;2024-01-07T07:06:01;5;4;3
33948;PMS7003;20229;49.856;19.030;2024-01-07T07:11:16;9;6;3
33948;PMS7003;20229;49.856;19.030;2024-01-07T07:16:30;5;5;3
33948;PMS7003;20229;49.856;19.030;2024-01-07T07:21:45;5;5;3
33948;PMS7003;20229;49.856;19.030;2024-01-07T07:27:00;6;5;3
33948;PMS7003;20229;49.856;19.030;2024-01-07T07:32:14;7;6;3
33948;PMS7003;20229;49.856;19.030;2024-01-07T07:37:28;7;4;3
33948;PMS7003;20229;49.856;19.030;2024-01-07T07:42:43;10;8;5
33948;PMS7003;20229;49.856;19.030;2024-01-07T07:47:57;5;5;3
33948;PMS7003;20229;49.856;19.030;2024-01-07T07:53:12;7;6;3
33948;PMS7003;20229;49.856;19.030;2024-01-07T07:58:26;8;7;3
33948;PMS7003;20229;49.856;19.030;2024-01-07T08:03:40;5;5;3
33948;PMS7003;20229;49.856;19.030;2024-01-07T08:08:54;10;8;6
33948;PMS7003;20229;49.856;19.030;2024-01-07T08:14:08;10;9;6
33948;PMS7003;20229;49.856;19.030;2024-01-07T08:19:22;12;12;7
33948;PMS7003;20229;49.856;19.030;2024-01-07T08:24:38;12;8;5
33948;PMS7003;20229;49.856;19.030;2024-01-07T08:29:52;10;8;4
33948;PMS7003;20229;49.856;19.030;2024-01-07T08:35:07;7;6;3
33948;PMS7003;20229;49.856;19.030;2024-01-07T08:40:22;6;6;3
33948;PMS7003;20229;49.856;19.030;2024-01-07T08:45:38;8;6;4
33948;PMS7003;20229;49.856;19.030;2024-01-07T08:50:52;4;4;3
33948;PMS7003;20229;49.856;19.030;2024-01-07T08:56:06;7;6;3
33948;PMS7003;20229;49.856;19.030;2024-01-07T09:01:21;8;6;3
33948;PMS7003;20229;49.856;19.030;2024-01-07T09:06:37;11;9;5
33948;PMS7003;20229;49.856;19.030;2024-01-07T09:11:52;7;5;3
33948;PMS7003;20229;49.856;19.030;2024-01-07T09:17:06;7;5;4
33948;PMS7003;20229;49.856;19.030;2024-01-07T09:22:20;6;5;2
33948;PMS7003;20229;49.856;19.030;2024-01-07T09:27:35;7;6;3
33948;PMS7003;20229;49.856;19.030;2024-01-07T09:32:49;8;8;5
33948;PMS7003;20229;49.856;19.030;2024-01-07T09:38:03;8;8;4
33948;PMS7003;20229;49.856;19.030;2024-01-07T09:43:17;9;7;5
33948;PMS7003;20229;49.856;19.030;2024-01-07T09:48:32;8;8;4
33948;PMS7003;20229;49.856;19.030;2024-01-07T09:53:46;9;8;5
33948;PMS7003;20229;49.856;19.030;2024-01-07T09:59:03;7;6;4
33948;PMS7003;20229;49.856;19.030;2024-01-07T10:04:17;8;6;4
33948;PMS7003;20229;49.856;19.030;2024-01-07T10:10:57;4;4;2
33948;PMS7003;20229;49.856;19.030;2024-01-07T10:16:22;8;6;3
33948;PMS7003;20229;49.856;19.030;2024-01-07T10:21:36;9;7;4
33948;PMS7003;20229;49.856;19.030;2024-01-07T10:26:50;12;6;4
33948;PMS7003;20229;49.856;19.030;2024-01-07T10:32:04;7;7;5
33948;PMS7003;20229;49.856;19.030;2024-01-07T10:37:19;8;7;4
33948;PMS7003;20229;49.856;19.030;2024-01-07T10:42:33;6;6;4
33948;PMS7003;20229;49.856;19.030;2024-01-07T10:47:49;7;7;4
33948;PMS7003;20229;49.856;19.030;2024-01-07T10:53:05;11;9;5
33948;PMS7003;20229;49.856;19.030;2024-01-07T10:58:24;7;7;4
33948;PMS7003;20229;49.856;19.030;2024-01-07T11:20:12;5;5;3
33948;PMS7003;20229;49.856;19.030;2024-01-07T11:25:28;8;7;4
33948;PMS7003;20229;49.856;19.030;2024-01-07T11:30:46;9;7;4
33948;PMS7003;20229;49.856;19.030;2024-01-07T11:36:04;10;8;6
33948;PMS7003;20229;49.856;19.030;2024-01-07T11:41:19;12;11;7
33948;PMS7003;20229;49.856;19.030;2024-01-07T11:46:36;10;8;5
33948;PMS7003;20229;49.856;19.030;2024-01-07T11:51:49;8;7;2
33948;PMS7003;20229;49.856;19.030;2024-01-07T11:57:05;10;7;5
33948;PMS7003;20229;49.856;19.030;2024-01-07T12:02:20;10;8;6
33948;PMS7003;20229;49.856;19.030;2024-01-07T12:07:34;9;8;5
33948;PMS7003;20229;49.856;19.030;2024-01-07T12:12:50;13;10;6
33948;PMS7003;20229;49.856;19.030;2024-01-07T12:18:04;14;11;7
33948;PMS7003;20229;49.856;19.030;2024-01-07T12:23:21;12;10;6
33948;PMS7003;20229;49.856;19.030;2024-01-07T12:28:36;11;9;6
33948;PMS7003;20229;49.856;19.030;2024-01-07T12:33:51;10;10;6
33948;PMS7003;20229;49.856;19.030;2024-01-07T12:39:06;12;9;6
33948;PMS7003;20229;49.856;19.030;2024-01-07T12:44:20;11;10;6
33948;PMS7003;20229;49.856;19.030;2024-01-07T12:49:34;16;14;7
33948;PMS7003;20229;49.856;19.030;2024-01-07T12:54:48;13;13;8
33948;PMS7003;20229;49.856;19.030;2024-01-07T13:00:04;11;10;6
33948;PMS7003;20229;49.856;19.030;2024-01-07T13:05:22;11;9;6
33948;PMS7003;20229;49.856;19.030;2024-01-07T13:10:37;10;9;5
33948;PMS7003;20229;49.856;19.030;2024-01-07T13:15:51;10;8;5
33948;PMS7003;20229;49.856;19.030;2024-01-07T13:21:05;9;8;5
33948;PMS7003;20229;49.856;19.030;2024-01-07T13:26:22;8;7;5
33948;PMS7003;20229;49.856;19.030;2024-01-07T13:31:36;8;8;5
33948;PMS7003;20229;49.856;19.030;2024-01-07T13:36:50;10;9;5
33948;PMS7003;20229;49.856;19.030;2024-01-07T13:42:05;14;11;7
33948;PMS7003;20229;49.856;19.030;2024-01-07T13:47:19;9;7;5
33948;PMS7003;20229;49.856;19.030;2024-01-07T13:52:34;11;9;6
33948;PMS7003;20229;49.856;19.030;2024-01-07T13:57:48;14;13;6
33948;PMS7003;20229;49.856;19.030;2024-01-07T14:03:04;11;9;6
33948;PMS7003;20229;49.856;19.030;2024-01-07T14:08:19;11;9;6
33948;PMS7003;20229;49.856;19.030;2024-01-07T14:13:33;13;12;8
33948;PMS7003;20229;49.856;19.030;2024-01-07T14:18:47;3;2;0
33948;PMS7003;20229;49.856;19.030;2024-01-07T14:24:01;9;8;5
33948;PMS7003;20229;49.856;19.030;2024-01-07T14:29:16;12;11;7
33948;PMS7003;20229;49.856;19.030;2024-01-07T14:34:30;10;7;5
33948;PMS7003;20229;49.856;19.030;2024-01-07T14:39:45;9;9;5
33948;PMS7003;20229;49.856;19.030;2024-01-07T14:44:59;13;12;7
33948;PMS7003;20229;49.856;19.030;2024-01-07T14:50:13;13;11;6
33948;PMS7003;20229;49.856;19.030;2024-01-07T14:55:27;12;11;6
33948;PMS7003;20229;49.856;19.030;2024-01-07T15:00:41;13;9;5
33948;PMS7003;20229;49.856;19.030;2024-01-07T15:05:56;12;10;7
33948;PMS7003;20229;49.856;19.030;2024-01-07T15:11:11;15;12;8
33948;PMS7003;20229;49.856;19.030;2024-01-07T15:16:25;13;11;6
33948;PMS7003;20229;49.856;19.030;2024-01-07T15:21:42;13;12;6
33948;PMS7003;20229;49.856;19.030;2024-01-07T15:26:56;13;10;7
33948;PMS7003;20229;49.856;19.030;2024-01-07T15:32:10;16;14;9
33948;PMS7003;20229;49.856;19.030;2024-01-07T15:37:24;11;10;7
33948;PMS7003;20229;49.856;19.030;2024-01-07T15:42:38;9;7;5
33948;PMS7003;20229;49.856;19.030;2024-01-07T15:47:52;13;12;7
33948;PMS7003;20229;49.856;19.030;2024-01-07T15:53:07;11;11;7
33948;PMS7003;20229;49.856;19.030;2024-01-07T15:58:21;16;13;8
33948;PMS7003;20229;49.856;19.030;2024-01-07T16:03:35;11;11;7
33948;PMS7003;20229;49.856;19.030;2024-01-07T16:08:50;17;13;8
33948;PMS7003;20229;49.856;19.030;2024-01-07T16:14:04;16;12;8
33948;PMS7003;20229;49.856;19.030;2024-01-07T16:19:18;14;12;7
33948;PMS7003;20229;49.856;19.030;2024-01-07T16:24:32;14;12;7
33948;PMS7003;20229;49.856;19.030;2024-01-07T16:29:47;16;12;7
33948;PMS7003;20229;49.856;19.030;2024-01-07T16:35:01;15;12;7
33948;PMS7003;20229;49.856;19.030;2024-01-07T16:40:15;16;14;8
33948;PMS7003;20229;49.856;19.030;2024-01-07T16:45:29;13;10;7
33948;PMS7003;20229;49.856;19.030;2024-01-07T16:50:43;17;13;9
33948;PMS7003;20229;49.856;19.030;2024-01-07T16:55:57;16;11;8
33948;PMS7003;20229;49.856;19.030;2024-01-07T17:01:11;11;10;7
33948;PMS7003;20229;49.856;19.030;2024-01-07T17:06:26;14;12;6
33948;PMS7003;20229;49.856;19.030;2024-01-07T17:11:45;17;14;9
33948;PMS7003;20229;49.856;19.030;2024-01-07T17:17:02;14;12;8
33948;PMS7003;20229;49.856;19.030;2024-01-07T17:22:17;20;16;10
33948;PMS7003;20229;49.856;19.030;2024-01-07T17:27:31;17;16;9
33948;PMS7003;20229;49.856;19.030;2024-01-07T17:32:45;21;19;11
33948;PMS7003;20229;49.856;19.030;2024-01-07T17:37:59;16;13;8
33948;PMS7003;20229;49.856;19.030;2024-01-07T17:43:12;14;12;7
33948;PMS7003;20229;49.856;19.030;2024-01-07T17:48:27;19;16;10
33948;PMS7003;20229;49.856;19.030;2024-01-07T17:53:42;16;15;9
33948;PMS7003;20229;49.856;19.030;2024-01-07T17:58:57;16;14;8
33948;PMS7003;20229;49.856;19.030;2024-01-07T18:04:11;18;16;9
33948;PMS7003;20229;49.856;19.030;2024-01-07T18:09:25;19;16;10
33948;PMS7003;20229;49.856;19.030;2024-01-07T18:14:39;16;15;10
33948;PMS7003;20229;49.856;19.030;2024-01-07T18:19:54;10;9;5
33948;PMS7003;20229;49.856;19.030;2024-01-07T18:25:09;21;17;11
33948;PMS7003;20229;49.856;19.030;2024-01-07T18:30:23;20;18;11
33948;PMS7003;20229;49.856;19.030;2024-01-07T18:35:37;17;15;10
33948;PMS7003;20229;49.856;19.030;2024-01-07T18:40:51;19;19;11
33948;PMS7003;20229;49.856;19.030;2024-01-07T18:46:09;14;13;8
33948;PMS7003;20229;49.856;19.030;2024-01-07T18:51:24;21;19;11
33948;PMS7003;20229;49.856;19.030;2024-01-07T18:56:38;19;17;10
33948;PMS7003;20229;49.856;19.030;2024-01-07T19:01:52;22;18;10
33948;PMS7003;20229;49.856;19.030;2024-01-07T19:07:06;24;20;12
33948;PMS7003;20229;49.856;19.030;2024-01-07T19:12:20;16;16;10
33948;PMS7003;20229;49.856;19.030;2024-01-07T19:17:35;27;23;17
33948;PMS7003;20229;49.856;19.030;2024-01-07T19:22:56;22;19;12
33948;PMS7003;20229;49.856;19.030;2024-01-07T19:28:11;24;22;13
33948;PMS7003;20229;49.856;19.030;2024-01-07T19:33:25;18;17;8
33948;PMS7003;20229;49.856;19.030;2024-01-07T19:38:40;15;13;8
33948;PMS7003;20229;49.856;19.030;2024-01-07T19:43:55;17;15;8
33948;PMS7003;20229;49.856;19.030;2024-01-07T19:49:09;16;15;9
33948;PMS7003;20229;49.856;19.030;2024-01-07T19:54:25;17;13;8
33948;PMS7003;20229;49.856;19.030;2024-01-07T19:59:39;18;16;9
33948;PMS7003;20229;49.856;19.030;2024-01-07T20:04:55;20;18;11
33948;PMS7003;20229;49.856;19.030;2024-01-07T20:10:12;17;13;8
33948;PMS7003;20229;49.856;19.030;2024-01-07T20:15:27;18;16;9
33948;PMS7003;20229;49.856;19.030;2024-01-07T20:20:42;15;13;9
33948;PMS7003;20229;49.856;19.030;2024-01-07T20:26:03;17;14;8
33948;PMS7003;20229;49.856;19.030;2024-01-07T20:31:17;17;13;8
33948;PMS7003;20229;49.856;19.030;2024-01-07T20:36:31;15;14;9
33948;PMS7003;20229;49.856;19.030;2024-01-07T20:41:45;14;11;5
33948;PMS7003;20229;49.856;19.030;2024-01-07T20:47:02;19;15;8
33948;PMS7003;20229;49.856;19.030;2024-01-07T20:52:17;14;11;5
33948;PMS7003;20229;49.856;19.030;2024-01-07T20:57:34;17;13;8
33948;PMS7003;20229;49.856;19.030;2024-01-07T21:02:48;16;14;8
33948;PMS7003;20229;49.856;19.030;2024-01-07T21:08:03;15;12;8
33948;PMS7003;20229;49.856;19.030;2024-01-07T21:13:17;15;13;7
33948;PMS7003;20229;49.856;19.030;2024-01-07T21:18:31;18;14;7
33948;PMS7003;20229;49.856;19.030;2024-01-07T21:23:47;12;9;6
33948;PMS7003;20229;49.856;19.030;2024-01-07T21:29:02;18;15;9
33948;PMS7003;20229;49.856;19.030;2024-01-07T21:34:16;19;16;9
33948;PMS7003;20229;49.856;19.030;2024-01-07T21:39:30;14;12;9
33948;PMS7003;20229;49.856;19.030;2024-01-07T21:44:44;13;12;7
33948;PMS7003;20229;49.856;19.030;2024-01-07T21:49:58;14;13;7
33948;PMS7003;20229;49.856;19.030;2024-01-07T21:55:12;15;13;9
33948;PMS7003;20229;49.856;19.030;2024-01-07T22:00:26;16;14;9
33948;PMS7003;20229;49.856;19.030;2024-01-07T22:05:40;11;9;6
33948;PMS7003;20229;49.856;19.030;2024-01-07T22:10:56;12;11;7
33948;PMS7003;20229;49.856;19.030;2024-01-07T22:16:10;13;10;7
33948;PMS7003;20229;49.856;19.030;2024-01-07T22:21:25;12;11;6
33948;PMS7003;20229;49.856;19.030;2024-01-07T22:26:40;12;10;6
33948;PMS7003;20229;49.856;19.030;2024-01-07T22:31:57;10;10;6
33948;PMS7003;20229;49.856;19.030;2024-01-07T22:37:11;15;13;9
33948;PMS7003;20229;49.856;19.030;2024-01-07T22:42:25;16;12;8
33948;PMS7003;20229;49.856;19.030;2024-01-07T22:47:39;13;10;6
33948;PMS7003;20229;49.856;19.030;2024-01-07T22:52:53;15;11;6
33948;PMS7003;20229;49.856;19.030;2024-01-07T22:58:07;12;9;6
33948;PMS7003;20229;49.856;19.030;2024-01-07T23:03:21;15;13;8
33948;PMS7003;20229;49.856;19.030;2024-01-07T23:08:35;12;9;7
33948;PMS7003;20229;49.856;19.030;2024-01-07T23:13:49;17;13;8
33948;PMS7003;20229;49.856;19.030;2024-01-07T23:19:03;15;14;8
33948;PMS7003;20229;49.856;19.030;2024-01-07T23:24:17;13;11;6
33948;PMS7003;20229;49.856;19.030;2024-01-07T23:29:34;12;12;7
33948;PMS7003;20229;49.856;19.030;2024-01-07T23:34:53;13;10;7
33948;PMS7003;20229;49.856;19.030;2024-01-07T23:40:07;12;11;8
33948;PMS7003;20229;49.856;19.030;2024-01-07T23:45:22;13;12;7
33948;PMS7003;20229;49.856;19.030;2024-01-07T23:50:36;14;12;8
33948;PMS7003;20229;49.856;19.030;2024-01-07T23:55:50;16;15;10
